sensor_id;sensor_type;location;lat;lon;timestamp;P1;durP1;ratioP1;P2;durP2;ratioP2
54372;SDS011;40271;48.798;10.178;2022-08-11T00:01:52;1.88;;;1.75;;
54372;SDS011;40271;48.798;10.178;2022-08-11T00:04:19;2.33;;;2.00;;
54372;SDS011;40271;48.798;10.178;2022-08-11T00:06:45;2.42;;;1.95;;
54372;SDS011;40271;48.798;10.178;2022-08-11T00:09:16;2.33;;;2.13;;
54372;SDS011;40271;48.798;10.178;2022-08-11T00:11:51;3.45;;;2.42;;
54372;SDS011;40271;48.798;10.178;2022-08-11T00:14:21;3.05;;;2.15;;
54372;SDS011;40271;48.798;10.178;2022-08-11T00:19:18;2.50;;;2.00;;
54372;SDS011;40271;48.798;10.178;2022-08-11T00:21:45;2.55;;;2.28;;
54372;SDS011;40271;48.798;10.178;2022-08-11T00:24:11;2.38;;;2.03;;
54372;SDS011;40271;48.798;10.178;2022-08-11T00:26:38;2.45;;;2.25;;
54372;SDS011;40271;48.798;10.178;2022-08-11T00:29:10;2.65;;;2.33;;
54372;SDS011;40271;48.798;10.178;2022-08-11T00:31:36;2.40;;;2.20;;
54372;SDS011;40271;48.798;10.178;2022-08-11T00:34:05;4.00;;;2.20;;
54372;SDS011;40271;48.798;10.178;2022-08-11T00:36:42;2.65;;;2.33;;
54372;SDS011;40271;48.798;10.178;2022-08-11T00:39:08;2.88;;;2.20;;
54372;SDS011;40271;48.798;10.178;2022-08-11T00:41:38;2.22;;;2.00;;
54372;SDS011;40271;48.798;10.178;2022-08-11T00:44:15;2.63;;;2.42;;
54372;SDS011;40271;48.798;10.178;2022-08-11T01:02:14;3.90;;;2.55;;
54372;SDS011;40271;48.798;10.178;2022-08-11T01:27:59;2.53;;;2.33;;
54372;SDS011;40271;48.798;10.178;2022-08-11T01:33:16;3.22;;;2.60;;
54372;SDS011;40271;48.798;10.178;2022-08-11T01:38:37;2.97;;;2.33;;
54372;SDS011;40271;48.798;10.178;2022-08-11T01:46:31;2.63;;;2.40;;
54372;SDS011;40271;48.798;10.178;2022-08-11T01:59:46;3.33;;;2.60;;
54372;SDS011;40271;48.798;10.178;2022-08-11T02:05:16;3.95;;;2.50;;
54372;SDS011;40271;48.798;10.178;2022-08-11T02:08:02;4.00;;;2.78;;
54372;SDS011;40271;48.798;10.178;2022-08-11T02:13:22;2.78;;;2.58;;
54372;SDS011;40271;48.798;10.178;2022-08-11T02:15:50;3.33;;;3.03;;
54372;SDS011;40271;48.798;10.178;2022-08-11T02:18:27;2.97;;;2.67;;
54372;SDS011;40271;48.798;10.178;2022-08-11T02:21:18;3.03;;;2.65;;
54372;SDS011;40271;48.798;10.178;2022-08-11T02:24:27;3.20;;;2.70;;
54372;SDS011;40271;48.798;10.178;2022-08-11T02:27:06;6.33;;;2.70;;
54372;SDS011;40271;48.798;10.178;2022-08-11T02:29:44;2.95;;;2.65;;
54372;SDS011;40271;48.798;10.178;2022-08-11T02:32:28;3.28;;;2.97;;
54372;SDS011;40271;48.798;10.178;2022-08-11T02:35:21;5.10;;;2.70;;
54372;SDS011;40271;48.798;10.178;2022-08-11T02:40:23;3.25;;;2.90;;
54372;SDS011;40271;48.798;10.178;2022-08-11T02:43:00;4.93;;;2.90;;
54372;SDS011;40271;48.798;10.178;2022-08-11T02:45:33;5.18;;;2.80;;
54372;SDS011;40271;48.798;10.178;2022-08-11T02:56:13;3.38;;;2.80;;
54372;SDS011;40271;48.798;10.178;2022-08-11T03:02:18;5.20;;;2.40;;
54372;SDS011;40271;48.798;10.178;2022-08-11T03:04:35;3.42;;;2.92;;
54372;SDS011;40271;48.798;10.178;2022-08-11T03:07:07;3.08;;;2.63;;
54372;SDS011;40271;48.798;10.178;2022-08-11T03:09:42;3.45;;;2.90;;
54372;SDS011;40271;48.798;10.178;2022-08-11T03:15:28;2.65;;;2.38;;
54372;SDS011;40271;48.798;10.178;2022-08-11T03:21:01;3.25;;;2.95;;
54372;SDS011;40271;48.798;10.178;2022-08-11T03:28:48;2.95;;;2.53;;
54372;SDS011;40271;48.798;10.178;2022-08-11T03:34:20;3.38;;;3.08;;
54372;SDS011;40271;48.798;10.178;2022-08-11T03:36:52;5.15;;;2.95;;
54372;SDS011;40271;48.798;10.178;2022-08-11T04:03:06;4.18;;;2.85;;
54372;SDS011;40271;48.798;10.178;2022-08-11T04:09:10;3.17;;;2.83;;
54372;SDS011;40271;48.798;10.178;2022-08-11T04:16:43;3.00;;;2.47;;
54372;SDS011;40271;48.798;10.178;2022-08-11T04:48:37;4.05;;;3.20;;
54372;SDS011;40271;48.798;10.178;2022-08-11T05:01:04;4.22;;;2.85;;
54372;SDS011;40271;48.798;10.178;2022-08-11T05:09:03;4.25;;;2.85;;
54372;SDS011;40271;48.798;10.178;2022-08-11T05:11:47;3.22;;;2.80;;
54372;SDS011;40271;48.798;10.178;2022-08-11T05:17:05;4.05;;;3.47;;
54372;SDS011;40271;48.798;10.178;2022-08-11T05:19:52;4.13;;;3.33;;
54372;SDS011;40271;48.798;10.178;2022-08-11T05:22:37;3.42;;;3.13;;
54372;SDS011;40271;48.798;10.178;2022-08-11T05:25:30;6.03;;;3.37;;
54372;SDS011;40271;48.798;10.178;2022-08-11T05:28:29;3.63;;;3.00;;
54372;SDS011;40271;48.798;10.178;2022-08-11T05:31:15;5.25;;;2.97;;
54372;SDS011;40271;48.798;10.178;2022-08-11T05:37:07;6.65;;;3.20;;
54372;SDS011;40271;48.798;10.178;2022-08-11T05:39:38;4.85;;;3.25;;
54372;SDS011;40271;48.798;10.178;2022-08-11T05:42:25;3.60;;;3.30;;
54372;SDS011;40271;48.798;10.178;2022-08-11T05:45:13;4.93;;;3.90;;
54372;SDS011;40271;48.798;10.178;2022-08-11T05:47:59;3.90;;;2.92;;
54372;SDS011;40271;48.798;10.178;2022-08-11T05:50:51;5.32;;;3.10;;
54372;SDS011;40271;48.798;10.178;2022-08-11T05:53:42;5.05;;;3.08;;
54372;SDS011;40271;48.798;10.178;2022-08-11T05:56:29;3.50;;;3.13;;
54372;SDS011;40271;48.798;10.178;2022-08-11T05:58:56;5.25;;;3.33;;
54372;SDS011;40271;48.798;10.178;2022-08-11T06:01:26;5.22;;;3.10;;
54372;SDS011;40271;48.798;10.178;2022-08-11T06:03:55;5.18;;;3.15;;
54372;SDS011;40271;48.798;10.178;2022-08-11T06:09:14;4.43;;;3.35;;
54372;SDS011;40271;48.798;10.178;2022-08-11T06:11:45;3.90;;;3.25;;
54372;SDS011;40271;48.798;10.178;2022-08-11T06:14:11;5.50;;;2.90;;
54372;SDS011;40271;48.798;10.178;2022-08-11T06:16:37;3.58;;;2.90;;
54372;SDS011;40271;48.798;10.178;2022-08-11T06:19:05;3.97;;;3.25;;
54372;SDS011;40271;48.798;10.178;2022-08-11T06:21:32;3.42;;;2.88;;
54372;SDS011;40271;48.798;10.178;2022-08-11T06:24:00;3.83;;;3.22;;
54372;SDS011;40271;48.798;10.178;2022-08-11T06:26:29;3.95;;;2.85;;
54372;SDS011;40271;48.798;10.178;2022-08-11T06:28:55;3.63;;;2.78;;
54372;SDS011;40271;48.798;10.178;2022-08-11T06:31:22;3.22;;;2.80;;
54372;SDS011;40271;48.798;10.178;2022-08-11T06:36:16;4.80;;;3.10;;
54372;SDS011;40271;48.798;10.178;2022-08-11T06:41:39;3.10;;;2.80;;
54372;SDS011;40271;48.798;10.178;2022-08-11T06:49:08;3.53;;;2.90;;
54372;SDS011;40271;48.798;10.178;2022-08-11T06:54:20;3.70;;;2.58;;
54372;SDS011;40271;48.798;10.178;2022-08-11T06:56:47;3.63;;;3.03;;
54372;SDS011;40271;48.798;10.178;2022-08-11T06:59:32;3.33;;;2.70;;
54372;SDS011;40271;48.798;10.178;2022-08-11T07:02:22;5.97;;;3.08;;
54372;SDS011;40271;48.798;10.178;2022-08-11T07:04:59;3.33;;;3.03;;
54372;SDS011;40271;48.798;10.178;2022-08-11T07:07:49;4.15;;;2.58;;
54372;SDS011;40271;48.798;10.178;2022-08-11T07:10:46;4.88;;;2.80;;
54372;SDS011;40271;48.798;10.178;2022-08-11T07:13:36;3.50;;;2.60;;
54372;SDS011;40271;48.798;10.178;2022-08-11T07:16:26;4.03;;;2.83;;
54372;SDS011;40271;48.798;10.178;2022-08-11T07:18:59;3.97;;;2.88;;
54372;SDS011;40271;48.798;10.178;2022-08-11T07:21:45;4.93;;;2.80;;
54372;SDS011;40271;48.798;10.178;2022-08-11T07:24:35;4.15;;;2.65;;
54372;SDS011;40271;48.798;10.178;2022-08-11T07:30:07;3.10;;;2.63;;
54372;SDS011;40271;48.798;10.178;2022-08-11T07:32:36;3.10;;;2.78;;
54372;SDS011;40271;48.798;10.178;2022-08-11T07:35:10;3.22;;;2.30;;
54372;SDS011;40271;48.798;10.178;2022-08-11T07:37:40;2.70;;;2.35;;
54372;SDS011;40271;48.798;10.178;2022-08-11T07:40:07;3.17;;;2.70;;
54372;SDS011;40271;48.798;10.178;2022-08-11T07:42:34;3.65;;;2.80;;
54372;SDS011;40271;48.798;10.178;2022-08-11T07:45:00;4.13;;;2.67;;
54372;SDS011;40271;48.798;10.178;2022-08-11T07:47:46;4.20;;;2.63;;
54372;SDS011;40271;48.798;10.178;2022-08-11T07:50:31;3.70;;;2.50;;
54372;SDS011;40271;48.798;10.178;2022-08-11T07:53:16;2.47;;;2.25;;
54372;SDS011;40271;48.798;10.178;2022-08-11T07:55:43;3.30;;;2.42;;
54372;SDS011;40271;48.798;10.178;2022-08-11T07:58:09;3.03;;;2.55;;
54372;SDS011;40271;48.798;10.178;2022-08-11T08:00:56;2.60;;;2.40;;
54372;SDS011;40271;48.798;10.178;2022-08-11T08:03:41;3.63;;;2.40;;
54372;SDS011;40271;48.798;10.178;2022-08-11T08:06:27;4.85;;;2.63;;
54372;SDS011;40271;48.798;10.178;2022-08-11T08:09:14;2.40;;;2.20;;
54372;SDS011;40271;48.798;10.178;2022-08-11T08:12:01;3.75;;;2.50;;
54372;SDS011;40271;48.798;10.178;2022-08-11T08:14:45;4.65;;;2.38;;
54372;SDS011;40271;48.798;10.178;2022-08-11T08:17:30;2.33;;;2.10;;
54372;SDS011;40271;48.798;10.178;2022-08-11T08:20:13;2.13;;;1.92;;
54372;SDS011;40271;48.798;10.178;2022-08-11T08:22:40;4.40;;;2.25;;
54372;SDS011;40271;48.798;10.178;2022-08-11T08:25:07;2.70;;;2.05;;
54372;SDS011;40271;48.798;10.178;2022-08-11T08:27:34;3.97;;;2.10;;
54372;SDS011;40271;48.798;10.178;2022-08-11T08:30:03;2.88;;;1.92;;
54372;SDS011;40271;48.798;10.178;2022-08-11T08:32:49;2.47;;;2.00;;
54372;SDS011;40271;48.798;10.178;2022-08-11T08:35:15;2.92;;;2.28;;
54372;SDS011;40271;48.798;10.178;2022-08-11T08:37:42;3.33;;;1.98;;
54372;SDS011;40271;48.798;10.178;2022-08-11T08:40:08;3.67;;;2.05;;
54372;SDS011;40271;48.798;10.178;2022-08-11T08:42:38;3.15;;;1.90;;
54372;SDS011;40271;48.798;10.178;2022-08-11T08:45:09;2.95;;;2.08;;
54372;SDS011;40271;48.798;10.178;2022-08-11T08:47:42;5.47;;;2.40;;
54372;SDS011;40271;48.798;10.178;2022-08-11T08:50:12;3.38;;;1.92;;
54372;SDS011;40271;48.798;10.178;2022-08-11T08:52:42;5.05;;;1.90;;
54372;SDS011;40271;48.798;10.178;2022-08-11T08:57:36;4.05;;;2.40;;
54372;SDS011;40271;48.798;10.178;2022-08-11T09:00:03;2.60;;;1.88;;
54372;SDS011;40271;48.798;10.178;2022-08-11T09:02:30;3.75;;;1.92;;
54372;SDS011;40271;48.798;10.178;2022-08-11T09:04:56;2.25;;;1.67;;
54372;SDS011;40271;48.798;10.178;2022-08-11T09:07:23;3.60;;;1.73;;
54372;SDS011;40271;48.798;10.178;2022-08-11T09:09:53;1.92;;;1.35;;
54372;SDS011;40271;48.798;10.178;2022-08-11T09:12:20;2.42;;;1.70;;
54372;SDS011;40271;48.798;10.178;2022-08-11T09:14:47;2.15;;;1.67;;
54372;SDS011;40271;48.798;10.178;2022-08-11T09:17:31;2.20;;;2.00;;
54372;SDS011;40271;48.798;10.178;2022-08-11T09:20:00;3.17;;;1.77;;
54372;SDS011;40271;48.798;10.178;2022-08-11T09:22:27;2.30;;;1.63;;
54372;SDS011;40271;48.798;10.178;2022-08-11T09:25:12;1.95;;;1.77;;
54372;SDS011;40271;48.798;10.178;2022-08-11T09:27:57;2.30;;;1.60;;
54372;SDS011;40271;48.798;10.178;2022-08-11T09:30:23;2.85;;;1.60;;
54372;SDS011;40271;48.798;10.178;2022-08-11T09:32:51;2.08;;;1.65;;
54372;SDS011;40271;48.798;10.178;2022-08-11T09:35:22;3.15;;;1.77;;
54372;SDS011;40271;48.798;10.178;2022-08-11T09:37:49;2.75;;;1.50;;
54372;SDS011;40271;48.798;10.178;2022-08-11T09:40:34;4.55;;;1.58;;
54372;SDS011;40271;48.798;10.178;2022-08-11T09:43:04;1.85;;;1.70;;
54372;SDS011;40271;48.798;10.178;2022-08-11T09:45:52;3.13;;;2.17;;
54372;SDS011;40271;48.798;10.178;2022-08-11T09:48:19;2.60;;;1.52;;
54372;SDS011;40271;48.798;10.178;2022-08-11T09:50:49;1.92;;;1.70;;
54372;SDS011;40271;48.798;10.178;2022-08-11T09:55:44;2.95;;;1.50;;
54372;SDS011;40271;48.798;10.178;2022-08-11T09:58:12;1.85;;;1.75;;
54372;SDS011;40271;48.798;10.178;2022-08-11T10:00:38;2.70;;;2.03;;
54372;SDS011;40271;48.798;10.178;2022-08-11T10:03:37;5.28;;;1.73;;
54372;SDS011;40271;48.798;10.178;2022-08-11T10:06:00;1.77;;;1.65;;
54372;SDS011;40271;48.798;10.178;2022-08-11T10:08:45;1.80;;;1.30;;
54372;SDS011;40271;48.798;10.178;2022-08-11T10:11:13;1.75;;;1.45;;
54372;SDS011;40271;48.798;10.178;2022-08-11T10:13:43;1.58;;;1.48;;
54372;SDS011;40271;48.798;10.178;2022-08-11T10:16:28;1.88;;;1.70;;
54372;SDS011;40271;48.798;10.178;2022-08-11T10:18:57;2.00;;;1.60;;
54372;SDS011;40271;48.798;10.178;2022-08-11T10:23:59;1.67;;;1.52;;
54372;SDS011;40271;48.798;10.178;2022-08-11T10:26:45;2.40;;;1.27;;
54372;SDS011;40271;48.798;10.178;2022-08-11T10:32:11;4.32;;;1.70;;
54372;SDS011;40271;48.798;10.178;2022-08-11T10:34:56;1.73;;;1.55;;
54372;SDS011;40271;48.798;10.178;2022-08-11T10:37:23;2.25;;;1.60;;
54372;SDS011;40271;48.798;10.178;2022-08-11T10:39:50;1.98;;;1.60;;
54372;SDS011;40271;48.798;10.178;2022-08-11T10:42:16;2.08;;;1.63;;
54372;SDS011;40271;48.798;10.178;2022-08-11T10:45:03;3.47;;;1.92;;
54372;SDS011;40271;48.798;10.178;2022-08-11T10:47:50;1.98;;;1.40;;
54372;SDS011;40271;48.798;10.178;2022-08-11T10:50:17;2.75;;;1.80;;
54372;SDS011;40271;48.798;10.178;2022-08-11T10:53:02;1.60;;;1.48;;
54372;SDS011;40271;48.798;10.178;2022-08-11T10:55:47;4.53;;;1.60;;
54372;SDS011;40271;48.798;10.178;2022-08-11T10:58:32;1.67;;;1.55;;
54372;SDS011;40271;48.798;10.178;2022-08-11T11:01:14;2.03;;;1.40;;
54372;SDS011;40271;48.798;10.178;2022-08-11T11:03:41;1.40;;;1.30;;
54372;SDS011;40271;48.798;10.178;2022-08-11T11:06:11;2.22;;;1.45;;
54372;SDS011;40271;48.798;10.178;2022-08-11T11:08:44;4.20;;;1.50;;
54372;SDS011;40271;48.798;10.178;2022-08-11T11:11:17;1.70;;;1.60;;
54372;SDS011;40271;48.798;10.178;2022-08-11T11:13:45;1.67;;;1.40;;
54372;SDS011;40271;48.798;10.178;2022-08-11T11:16:31;1.58;;;1.48;;
54372;SDS011;40271;48.798;10.178;2022-08-11T11:19:13;1.63;;;1.52;;
54372;SDS011;40271;48.798;10.178;2022-08-11T11:21:43;1.55;;;1.20;;
54372;SDS011;40271;48.798;10.178;2022-08-11T11:29:32;1.65;;;1.50;;
54372;SDS011;40271;48.798;10.178;2022-08-11T11:37:00;1.40;;;1.00;;
54372;SDS011;40271;48.798;10.178;2022-08-11T11:39:26;2.13;;;1.50;;
54372;SDS011;40271;48.798;10.178;2022-08-11T11:41:54;1.63;;;1.52;;
54372;SDS011;40271;48.798;10.178;2022-08-11T11:44:21;1.52;;;1.38;;
54372;SDS011;40271;48.798;10.178;2022-08-11T11:46:47;3.70;;;1.63;;
54372;SDS011;40271;48.798;10.178;2022-08-11T11:49:15;1.85;;;1.40;;
54372;SDS011;40271;48.798;10.178;2022-08-11T11:51:42;1.70;;;1.60;;
54372;SDS011;40271;48.798;10.178;2022-08-11T11:54:09;1.52;;;1.42;;
54372;SDS011;40271;48.798;10.178;2022-08-11T11:56:35;1.40;;;1.30;;
54372;SDS011;40271;48.798;10.178;2022-08-11T11:59:02;2.72;;;1.38;;
54372;SDS011;40271;48.798;10.178;2022-08-11T12:01:47;2.53;;;1.40;;
54372;SDS011;40271;48.798;10.178;2022-08-11T12:04:13;1.45;;;1.30;;
54372;SDS011;40271;48.798;10.178;2022-08-11T12:06:40;2.55;;;1.20;;
54372;SDS011;40271;48.798;10.178;2022-08-11T12:09:06;1.30;;;1.20;;
54372;SDS011;40271;48.798;10.178;2022-08-11T12:11:32;2.08;;;1.38;;
54372;SDS011;40271;48.798;10.178;2022-08-11T12:14:18;1.83;;;1.50;;
54372;SDS011;40271;48.798;10.178;2022-08-11T12:16:46;2.17;;;1.30;;
54372;SDS011;40271;48.798;10.178;2022-08-11T12:19:17;3.85;;;1.60;;
54372;SDS011;40271;48.798;10.178;2022-08-11T12:21:45;1.80;;;1.40;;
54372;SDS011;40271;48.798;10.178;2022-08-11T12:24:31;1.30;;;1.20;;
54372;SDS011;40271;48.798;10.178;2022-08-11T12:27:17;2.20;;;1.50;;
54372;SDS011;40271;48.798;10.178;2022-08-11T12:29:48;5.07;;;1.70;;
54372;SDS011;40271;48.798;10.178;2022-08-11T12:32:14;2.75;;;1.30;;
54372;SDS011;40271;48.798;10.178;2022-08-11T12:34:40;1.50;;;1.40;;
54372;SDS011;40271;48.798;10.178;2022-08-11T12:37:06;1.40;;;1.30;;
54372;SDS011;40271;48.798;10.178;2022-08-11T12:39:36;1.90;;;1.70;;
54372;SDS011;40271;48.798;10.178;2022-08-11T12:42:29;1.88;;;1.30;;
54372;SDS011;40271;48.798;10.178;2022-08-11T12:45:14;2.95;;;1.50;;
54372;SDS011;40271;48.798;10.178;2022-08-11T12:48:03;2.38;;;1.35;;
54372;SDS011;40271;48.798;10.178;2022-08-11T12:50:50;1.60;;;1.50;;
54372;SDS011;40271;48.798;10.178;2022-08-11T12:53:35;1.70;;;1.35;;
54372;SDS011;40271;48.798;10.178;2022-08-11T12:56:04;1.50;;;1.40;;
54372;SDS011;40271;48.798;10.178;2022-08-11T12:58:50;1.48;;;1.30;;
54372;SDS011;40271;48.798;10.178;2022-08-11T13:01:17;2.03;;;1.50;;
54372;SDS011;40271;48.798;10.178;2022-08-11T13:04:02;2.60;;;1.40;;
54372;SDS011;40271;48.798;10.178;2022-08-11T13:06:48;1.70;;;1.60;;
54372;SDS011;40271;48.798;10.178;2022-08-11T13:09:15;1.42;;;1.33;;
54372;SDS011;40271;48.798;10.178;2022-08-11T13:11:41;2.30;;;1.45;;
54372;SDS011;40271;48.798;10.178;2022-08-11T13:14:26;2.38;;;1.65;;
54372;SDS011;40271;48.798;10.178;2022-08-11T13:16:53;2.20;;;1.30;;
54372;SDS011;40271;48.798;10.178;2022-08-11T13:19:39;3.25;;;1.55;;
54372;SDS011;40271;48.798;10.178;2022-08-11T13:22:06;1.70;;;1.20;;
54372;SDS011;40271;48.798;10.178;2022-08-11T13:24:32;2.58;;;1.30;;
54372;SDS011;40271;48.798;10.178;2022-08-11T13:26:59;2.22;;;1.20;;
54372;SDS011;40271;48.798;10.178;2022-08-11T13:29:26;2.97;;;1.38;;
54372;SDS011;40271;48.798;10.178;2022-08-11T13:31:54;1.60;;;1.30;;
54372;SDS011;40271;48.798;10.178;2022-08-11T13:34:21;2.53;;;1.40;;
54372;SDS011;40271;48.798;10.178;2022-08-11T13:36:49;2.03;;;1.30;;
54372;SDS011;40271;48.798;10.178;2022-08-11T13:39:16;1.30;;;1.13;;
54372;SDS011;40271;48.798;10.178;2022-08-11T13:41:42;1.52;;;1.10;;
54372;SDS011;40271;48.798;10.178;2022-08-11T13:44:12;2.03;;;1.15;;
54372;SDS011;40271;48.798;10.178;2022-08-11T13:46:39;1.92;;;1.38;;
54372;SDS011;40271;48.798;10.178;2022-08-11T13:49:07;1.50;;;1.38;;
54372;SDS011;40271;48.798;10.178;2022-08-11T13:51:33;3.20;;;1.40;;
54372;SDS011;40271;48.798;10.178;2022-08-11T13:54:07;4.00;;;1.40;;
54372;SDS011;40271;48.798;10.178;2022-08-11T13:56:34;1.65;;;1.30;;
54372;SDS011;40271;48.798;10.178;2022-08-11T13:59:03;2.35;;;1.38;;
54372;SDS011;40271;48.798;10.178;2022-08-11T14:01:31;2.05;;;1.30;;
54372;SDS011;40271;48.798;10.178;2022-08-11T14:03:59;1.52;;;1.10;;
54372;SDS011;40271;48.798;10.178;2022-08-11T14:06:26;1.48;;;1.38;;
54372;SDS011;40271;48.798;10.178;2022-08-11T14:08:52;1.40;;;1.30;;
54372;SDS011;40271;48.798;10.178;2022-08-11T14:11:19;2.55;;;1.40;;
54372;SDS011;40271;48.798;10.178;2022-08-11T14:14:04;1.77;;;1.67;;
54372;SDS011;40271;48.798;10.178;2022-08-11T14:16:32;1.60;;;1.50;;
54372;SDS011;40271;48.798;10.178;2022-08-11T14:21:27;2.25;;;1.50;;
54372;SDS011;40271;48.798;10.178;2022-08-11T14:24:21;4.47;;;2.40;;
54372;SDS011;40271;48.798;10.178;2022-08-11T14:26:48;2.70;;;1.33;;
54372;SDS011;40271;48.798;10.178;2022-08-11T14:29:16;1.42;;;1.27;;
54372;SDS011;40271;48.798;10.178;2022-08-11T14:31:43;1.30;;;1.20;;
54372;SDS011;40271;48.798;10.178;2022-08-11T14:34:10;2.33;;;1.35;;
54372;SDS011;40271;48.798;10.178;2022-08-11T14:36:39;2.25;;;1.40;;
54372;SDS011;40271;48.798;10.178;2022-08-11T14:39:09;1.65;;;1.30;;
54372;SDS011;40271;48.798;10.178;2022-08-11T14:41:40;3.03;;;1.50;;
54372;SDS011;40271;48.798;10.178;2022-08-11T14:44:24;1.98;;;1.55;;
54372;SDS011;40271;48.798;10.178;2022-08-11T14:47:10;4.13;;;1.50;;
54372;SDS011;40271;48.798;10.178;2022-08-11T14:49:39;2.05;;;1.60;;
54372;SDS011;40271;48.798;10.178;2022-08-11T14:52:06;2.20;;;1.55;;
54372;SDS011;40271;48.798;10.178;2022-08-11T14:54:33;1.50;;;1.40;;
54372;SDS011;40271;48.798;10.178;2022-08-11T14:57:19;2.38;;;1.40;;
54372;SDS011;40271;48.798;10.178;2022-08-11T14:59:46;4.47;;;1.65;;
54372;SDS011;40271;48.798;10.178;2022-08-11T15:02:13;5.43;;;1.67;;
54372;SDS011;40271;48.798;10.178;2022-08-11T15:04:58;2.25;;;1.42;;
54372;SDS011;40271;48.798;10.178;2022-08-11T15:07:25;2.42;;;1.45;;
54372;SDS011;40271;48.798;10.178;2022-08-11T15:09:58;1.60;;;1.50;;
54372;SDS011;40271;48.798;10.178;2022-08-11T15:12:25;1.55;;;1.25;;
54372;SDS011;40271;48.798;10.178;2022-08-11T15:14:52;4.88;;;1.60;;
54372;SDS011;40271;48.798;10.178;2022-08-11T15:17:38;1.50;;;1.40;;
54372;SDS011;40271;48.798;10.178;2022-08-11T15:20:06;1.50;;;1.40;;
54372;SDS011;40271;48.798;10.178;2022-08-11T15:22:51;3.25;;;1.60;;
54372;SDS011;40271;48.798;10.178;2022-08-11T15:25:36;3.55;;;1.50;;
54372;SDS011;40271;48.798;10.178;2022-08-11T15:28:03;1.52;;;1.42;;
54372;SDS011;40271;48.798;10.178;2022-08-11T15:30:50;2.35;;;1.50;;
54372;SDS011;40271;48.798;10.178;2022-08-11T15:33:36;1.83;;;1.45;;
54372;SDS011;40271;48.798;10.178;2022-08-11T15:36:22;2.00;;;1.80;;
54372;SDS011;40271;48.798;10.178;2022-08-11T15:41:43;1.50;;;1.40;;
54372;SDS011;40271;48.798;10.178;2022-08-11T15:44:29;1.83;;;1.55;;
54372;SDS011;40271;48.798;10.178;2022-08-11T15:47:22;2.53;;;1.50;;
54372;SDS011;40271;48.798;10.178;2022-08-11T15:49:52;1.48;;;1.38;;
54372;SDS011;40271;48.798;10.178;2022-08-11T15:52:20;2.80;;;1.60;;
54372;SDS011;40271;48.798;10.178;2022-08-11T15:54:47;2.72;;;1.42;;
54372;SDS011;40271;48.798;10.178;2022-08-11T15:57:16;3.47;;;1.58;;
54372;SDS011;40271;48.798;10.178;2022-08-11T16:00:03;1.40;;;1.30;;
54372;SDS011;40271;48.798;10.178;2022-08-11T16:02:49;2.10;;;1.85;;
54372;SDS011;40271;48.798;10.178;2022-08-11T16:05:35;1.75;;;1.50;;
54372;SDS011;40271;48.798;10.178;2022-08-11T16:08:01;1.60;;;1.50;;
54372;SDS011;40271;48.798;10.178;2022-08-11T16:10:29;1.70;;;1.52;;
54372;SDS011;40271;48.798;10.178;2022-08-11T16:12:56;1.60;;;1.50;;
54372;SDS011;40271;48.798;10.178;2022-08-11T16:15:27;1.58;;;1.45;;
54372;SDS011;40271;48.798;10.178;2022-08-11T16:18:21;1.98;;;1.38;;
54372;SDS011;40271;48.798;10.178;2022-08-11T16:20:49;4.13;;;1.60;;
54372;SDS011;40271;48.798;10.178;2022-08-11T16:23:16;2.40;;;1.42;;
54372;SDS011;40271;48.798;10.178;2022-08-11T16:25:43;2.28;;;1.50;;
54372;SDS011;40271;48.798;10.178;2022-08-11T16:28:10;2.42;;;1.60;;
54372;SDS011;40271;48.798;10.178;2022-08-11T16:30:38;4.63;;;1.52;;
54372;SDS011;40271;48.798;10.178;2022-08-11T16:33:04;5.40;;;1.50;;
54372;SDS011;40271;48.798;10.178;2022-08-11T16:35:32;1.73;;;1.60;;
54372;SDS011;40271;48.798;10.178;2022-08-11T16:38:18;4.22;;;1.52;;
54372;SDS011;40271;48.798;10.178;2022-08-11T16:41:04;2.00;;;1.60;;
54372;SDS011;40271;48.798;10.178;2022-08-11T16:43:31;2.10;;;1.67;;
54372;SDS011;40271;48.798;10.178;2022-08-11T16:46:17;2.17;;;1.80;;
54372;SDS011;40271;48.798;10.178;2022-08-11T16:49:03;1.85;;;1.60;;
54372;SDS011;40271;48.798;10.178;2022-08-11T16:51:30;2.05;;;1.50;;
54372;SDS011;40271;48.798;10.178;2022-08-11T16:53:56;2.55;;;1.70;;
54372;SDS011;40271;48.798;10.178;2022-08-11T16:56:31;2.17;;;1.60;;
54372;SDS011;40271;48.798;10.178;2022-08-11T16:59:00;1.60;;;1.50;;
54372;SDS011;40271;48.798;10.178;2022-08-11T17:01:52;1.83;;;1.63;;
54372;SDS011;40271;48.798;10.178;2022-08-11T17:04:23;4.13;;;1.73;;
54372;SDS011;40271;48.798;10.178;2022-08-11T17:07:11;1.70;;;1.30;;
54372;SDS011;40271;48.798;10.178;2022-08-11T17:10:04;1.95;;;1.33;;
54372;SDS011;40271;48.798;10.178;2022-08-11T17:12:50;2.75;;;1.50;;
54372;SDS011;40271;48.798;10.178;2022-08-11T17:15:32;3.17;;;1.50;;
54372;SDS011;40271;48.798;10.178;2022-08-11T17:18:18;2.13;;;1.58;;
54372;SDS011;40271;48.798;10.178;2022-08-11T17:21:05;2.35;;;1.40;;
54372;SDS011;40271;48.798;10.178;2022-08-11T17:23:32;2.00;;;1.70;;
54372;SDS011;40271;48.798;10.178;2022-08-11T17:26:30;1.92;;;1.40;;
54372;SDS011;40271;48.798;10.178;2022-08-11T17:29:16;1.60;;;1.40;;
54372;SDS011;40271;48.798;10.178;2022-08-11T17:31:43;2.95;;;1.48;;
54372;SDS011;40271;48.798;10.178;2022-08-11T17:34:28;1.48;;;1.38;;
54372;SDS011;40271;48.798;10.178;2022-08-11T17:37:14;3.97;;;1.52;;
54372;SDS011;40271;48.798;10.178;2022-08-11T17:39:40;3.13;;;1.55;;
54372;SDS011;40271;48.798;10.178;2022-08-11T17:42:06;3.00;;;1.48;;
54372;SDS011;40271;48.798;10.178;2022-08-11T17:44:51;1.95;;;1.30;;
54372;SDS011;40271;48.798;10.178;2022-08-11T17:47:36;2.35;;;1.52;;
54372;SDS011;40271;48.798;10.178;2022-08-11T17:50:22;1.40;;;1.30;;
54372;SDS011;40271;48.798;10.178;2022-08-11T17:52:48;1.58;;;1.40;;
54372;SDS011;40271;48.798;10.178;2022-08-11T17:55:34;1.60;;;1.50;;
54372;SDS011;40271;48.798;10.178;2022-08-11T17:58:19;1.42;;;1.33;;
54372;SDS011;40271;48.798;10.178;2022-08-11T18:01:05;1.30;;;1.20;;
54372;SDS011;40271;48.798;10.178;2022-08-11T18:03:31;1.45;;;1.35;;
54372;SDS011;40271;48.798;10.178;2022-08-11T18:06:03;1.73;;;1.52;;
54372;SDS011;40271;48.798;10.178;2022-08-11T18:08:30;1.98;;;1.55;;
54372;SDS011;40271;48.798;10.178;2022-08-11T18:11:16;2.42;;;1.40;;
54372;SDS011;40271;48.798;10.178;2022-08-11T18:14:02;1.83;;;1.45;;
54372;SDS011;40271;48.798;10.178;2022-08-11T18:16:47;1.50;;;1.40;;
54372;SDS011;40271;48.798;10.178;2022-08-11T18:19:32;1.52;;;1.25;;
54372;SDS011;40271;48.798;10.178;2022-08-11T18:22:30;1.50;;;1.40;;
54372;SDS011;40271;48.798;10.178;2022-08-11T18:25:22;1.50;;;1.40;;
54372;SDS011;40271;48.798;10.178;2022-08-11T18:28:09;2.05;;;1.40;;
54372;SDS011;40271;48.798;10.178;2022-08-11T18:30:55;3.17;;;1.40;;
54372;SDS011;40271;48.798;10.178;2022-08-11T18:33:43;1.80;;;1.30;;
54372;SDS011;40271;48.798;10.178;2022-08-11T18:36:30;1.77;;;1.30;;
54372;SDS011;40271;48.798;10.178;2022-08-11T18:39:17;1.70;;;1.30;;
54372;SDS011;40271;48.798;10.178;2022-08-11T18:42:05;2.53;;;1.40;;
54372;SDS011;40271;48.798;10.178;2022-08-11T18:44:52;1.67;;;1.48;;
54372;SDS011;40271;48.798;10.178;2022-08-11T18:47:37;1.40;;;1.30;;
54372;SDS011;40271;48.798;10.178;2022-08-11T18:50:23;1.88;;;1.65;;
54372;SDS011;40271;48.798;10.178;2022-08-11T18:53:08;3.67;;;1.70;;
54372;SDS011;40271;48.798;10.178;2022-08-11T18:55:54;1.55;;;1.45;;
54372;SDS011;40271;48.798;10.178;2022-08-11T18:58:40;2.00;;;1.40;;
54372;SDS011;40271;48.798;10.178;2022-08-11T19:01:26;1.80;;;1.40;;
54372;SDS011;40271;48.798;10.178;2022-08-11T19:04:11;1.95;;;1.38;;
54372;SDS011;40271;48.798;10.178;2022-08-11T19:06:57;2.53;;;1.48;;